createdAt,value
2022-08-05T07:02:57.283Z,48.94
2022-08-05T07:03:09.762Z,48.60
2022-08-05T07:03:18.997Z,48.40
2022-08-05T07:03:32.682Z,48.24
2022-08-05T07:03:42.090Z,48.22
2022-08-05T07:03:53.591Z,48.20
2022-08-05T07:04:04.848Z,48.19
2022-08-05T07:04:16.344Z,48.15
2022-08-05T07:04:28.342Z,48.16
2022-08-05T07:04:39.893Z,48.13
2022-08-05T07:04:51.363Z,48.11
2022-08-05T07:05:02.860Z,48.08
2022-08-05T07:05:18.653Z,48.21
2022-08-05T07:05:37.221Z,48.23
2022-08-05T07:05:41.372Z,48.25
2022-08-05T07:05:50.501Z,48.11
2022-08-05T07:06:02.002Z,48.06
2022-08-05T07:06:15.187Z,48.15
2022-08-05T07:06:24.427Z,48.06
2022-08-05T07:06:34.697Z,48.17
2022-08-05T07:06:45.915Z,48.05
2022-08-05T07:06:57.443Z,48.23
2022-08-05T07:07:09.648Z,48.02
2022-08-05T07:07:24.264Z,48.02
2022-08-05T07:07:35.618Z,48.21
2022-08-05T07:07:44.911Z,48.16
2022-08-05T07:07:56.436Z,48.07
2022-08-05T07:08:10.944Z,48.02
2022-08-05T07:08:18.123Z,48.03
2022-08-05T07:08:30.439Z,47.96
2022-08-05T07:08:41.970Z,47.98
2022-08-05T07:08:55.018Z,47.98
2022-08-05T07:09:04.735Z,47.95
2022-08-05T07:09:16.256Z,47.99
2022-08-05T07:09:27.479Z,47.96
2022-08-05T07:09:40.647Z,48.13
2022-08-05T07:09:58.187Z,48.06
2022-08-05T07:10:03.372Z,48.08
2022-08-05T07:10:15.034Z,47.98
2022-08-05T07:10:23.500Z,48.10
2022-08-05T07:10:35.430Z,48.09
2022-08-05T07:10:53.497Z,47.95
2022-08-05T07:10:59.400Z,48.03
2022-08-05T07:11:14.996Z,47.99
2022-08-05T07:11:25.413Z,48.11
2022-08-05T07:11:36.951Z,48.02
2022-08-05T07:11:51.434Z,48.11
2022-08-05T07:12:00.325Z,48.12
2022-08-05T07:12:09.612Z,47.95
2022-08-05T07:12:21.865Z,47.96
2022-08-05T07:12:33.155Z,47.93
2022-08-05T07:12:49.173Z,47.92
2022-08-05T07:12:56.226Z,47.98
2022-08-05T07:13:07.649Z,47.97
2022-08-05T07:13:39.471Z,48.01
2022-08-05T07:13:57.628Z,48.06
2022-08-05T07:13:58.068Z,48.05
2022-08-05T07:13:58.515Z,48.12
2022-08-05T07:14:06.589Z,48.05
2022-08-05T07:14:29.782Z,47.92
2022-08-05T07:14:30.704Z,48.10
2022-08-05T07:14:41.222Z,48.04
2022-08-05T07:14:51.254Z,47.95
2022-08-05T07:15:03.184Z,47.94
2022-08-05T07:15:17.303Z,47.87
2022-08-05T07:15:34.409Z,47.98
2022-08-05T07:16:01.871Z,48.01
2022-08-05T07:16:01.966Z,47.99
2022-08-05T07:16:04.775Z,48.00
2022-08-05T07:17:57.013Z,47.91
2022-08-05T07:17:58.904Z,48.02
2022-08-05T07:18:00.227Z,48.01
2022-08-05T07:18:00.373Z,47.99
2022-08-05T07:18:00.755Z,48.02
2022-08-05T07:18:01.237Z,48.01
2022-08-05T07:18:01.493Z,48.02
2022-08-05T07:18:02.207Z,48.06
2022-08-05T07:18:02.423Z,48.01
2022-08-05T07:18:08.293Z,48.01
2022-08-05T07:18:20.375Z,47.97
2022-08-05T07:18:28.907Z,48.02
2022-08-05T07:18:37.115Z,47.98
2022-08-05T07:18:49.063Z,47.98
2022-08-05T07:19:00.295Z,47.88
